createdAt,value
2023-05-30T00:01:41.195Z,4.10
2023-05-30T00:04:43.237Z,3.53
2023-05-30T00:07:45.267Z,3.57
2023-05-30T00:10:47.395Z,3.77
2023-05-30T00:13:50.212Z,3.47
2023-05-30T00:16:52.966Z,3.67
2023-05-30T00:19:55.922Z,3.73
2023-05-30T00:23:00.900Z,3.33
2023-05-30T00:26:03.091Z,3.40
2023-05-30T00:29:05.157Z,3.83
2023-05-30T00:32:07.388Z,3.60
2023-05-30T00:35:09.963Z,3.60
2023-05-30T00:38:11.989Z,3.60
2023-05-30T00:41:13.923Z,3.33
2023-05-30T00:44:16.419Z,3.83
2023-05-30T00:47:19.253Z,3.97
2023-05-30T00:50:21.786Z,4.07
2023-05-30T00:53:24.330Z,4.43
2023-05-30T00:56:27.854Z,3.73
2023-05-30T00:59:29.825Z,3.47
2023-05-30T01:02:34.795Z,3.50
2023-05-30T01:05:37.201Z,3.70
2023-05-30T01:08:39.209Z,3.93
2023-05-30T01:12:08.978Z,3.70
2023-05-30T01:15:15.506Z,3.77
2023-05-30T01:18:37.303Z,4.60
2023-05-30T01:21:39.908Z,3.47
2023-05-30T01:24:47.067Z,3.90
2023-05-30T01:27:57.941Z,4.23
2023-05-30T01:31:01.558Z,3.40
2023-05-30T01:34:03.470Z,3.50
2023-05-30T01:37:05.929Z,4.03
2023-05-30T01:40:10.538Z,3.50
2023-05-30T01:43:21.843Z,3.33
2023-05-30T01:46:35.065Z,3.67
2023-05-30T01:49:47.648Z,3.93
2023-05-30T01:52:58.580Z,4.10
2023-05-30T01:56:01.834Z,3.43
2023-05-30T01:59:05.079Z,3.77
2023-05-30T02:02:08.389Z,3.83
2023-05-30T02:05:10.659Z,4.10
2023-05-30T02:08:13.181Z,4.30
2023-05-30T02:11:16.027Z,4.47
2023-05-30T02:14:18.105Z,4.00
2023-05-30T02:17:22.578Z,3.57
2023-05-30T02:20:24.550Z,4.13
2023-05-30T02:23:26.606Z,3.93
2023-05-30T02:26:28.509Z,4.37
2023-05-30T02:29:31.308Z,5.77
2023-05-30T02:32:33.283Z,4.27
2023-05-30T02:35:35.279Z,4.00
2023-05-30T02:38:37.840Z,3.93
2023-05-30T02:41:39.768Z,4.30
2023-05-30T02:44:41.741Z,4.23
2023-05-30T02:47:43.743Z,3.57
2023-05-30T02:50:46.236Z,4.50
2023-05-30T02:53:48.189Z,4.47
2023-05-30T02:56:50.288Z,4.27
2023-05-30T02:59:52.737Z,3.83
2023-05-30T03:02:55.904Z,3.97
2023-05-30T03:05:58.836Z,3.33
2023-05-30T03:09:02.145Z,4.27
2023-05-30T03:12:06.464Z,3.93
2023-05-30T03:15:11.015Z,4.10
2023-05-30T03:18:13.234Z,4.73
2023-05-30T03:21:16.719Z,4.40
2023-05-30T03:24:19.281Z,3.97
2023-05-30T03:27:21.702Z,4.33
2023-05-30T03:30:26.983Z,4.57
2023-05-30T03:33:29.581Z,4.33
2023-05-30T03:36:31.568Z,4.60
2023-05-30T03:39:33.612Z,3.90
2023-05-30T03:42:36.439Z,3.73
2023-05-30T03:45:38.526Z,4.33
2023-05-30T03:48:40.461Z,3.93
2023-05-30T03:51:42.434Z,4.03
2023-05-30T03:54:44.406Z,3.70
2023-05-30T03:57:46.669Z,4.10
2023-05-30T04:00:48.728Z,3.80
2023-05-30T04:03:51.164Z,4.03
2023-05-30T04:06:53.520Z,4.40
2023-05-30T04:09:55.975Z,3.67
2023-05-30T04:12:57.861Z,4.00
2023-05-30T04:16:01.928Z,4.00
2023-05-30T04:19:04.078Z,4.70
2023-05-30T04:22:06.526Z,4.33
2023-05-30T04:25:09.536Z,4.53
2023-05-30T04:28:13.780Z,4.53
2023-05-30T04:34:21.542Z,4.10
2023-05-30T04:37:24.118Z,3.93
2023-05-30T04:40:28.236Z,3.90
2023-05-30T04:43:31.256Z,4.13
2023-05-30T04:46:33.325Z,3.87
2023-05-30T04:49:37.716Z,4.20
2023-05-30T04:52:39.763Z,4.27
2023-05-30T04:55:42.488Z,5.93
2023-05-30T04:58:49.811Z,4.20
2023-05-30T05:01:53.672Z,3.40
2023-05-30T05:04:57.229Z,3.90
2023-05-30T05:07:59.248Z,4.23
2023-05-30T05:11:06.532Z,4.00
2023-05-30T05:14:08.499Z,4.63
2023-05-30T05:17:10.924Z,4.00
2023-05-30T05:20:13.575Z,3.70
2023-05-30T05:23:15.933Z,4.17
2023-05-30T05:26:18.955Z,4.20
2023-05-30T05:29:21.450Z,3.93
2023-05-30T05:32:24.600Z,3.87
2023-05-30T05:35:26.682Z,3.20
2023-05-30T05:38:28.778Z,3.93
2023-05-30T05:41:30.898Z,3.77
2023-05-30T05:44:33.315Z,3.70
2023-05-30T05:47:35.809Z,3.47
2023-05-30T05:50:37.845Z,3.83
2023-05-30T05:53:39.853Z,4.13
2023-05-30T05:56:41.829Z,3.70
2023-05-30T05:59:43.799Z,3.63
2023-05-30T06:02:46.116Z,3.50
2023-05-30T06:05:48.779Z,3.43
2023-05-30T06:08:50.700Z,4.17
2023-05-30T06:11:52.766Z,3.60
2023-05-30T06:14:54.691Z,3.67
2023-05-30T06:17:56.796Z,4.00
2023-05-30T06:20:59.142Z,4.00
2023-05-30T06:24:04.713Z,4.13
2023-05-30T06:27:07.708Z,4.33
2023-05-30T06:30:10.438Z,4.23
2023-05-30T06:33:12.352Z,4.03
2023-05-30T06:36:14.450Z,3.93
2023-05-30T06:39:17.129Z,4.33
2023-05-30T06:42:19.224Z,3.67
2023-05-30T06:45:21.215Z,3.60
2023-05-30T06:48:23.243Z,3.93
2023-05-30T06:51:25.240Z,4.17
2023-05-30T06:54:27.906Z,3.60
2023-05-30T06:57:29.865Z,3.90
2023-05-30T07:00:32.526Z,3.80
2023-05-30T07:03:34.467Z,3.73
2023-05-30T07:06:36.720Z,3.60
2023-05-30T07:09:38.774Z,3.73
2023-05-30T07:12:41.658Z,4.50
2023-05-30T07:15:43.974Z,3.77
2023-05-30T07:18:46.352Z,4.43
2023-05-30T07:21:49.328Z,4.37
2023-05-30T07:24:51.472Z,4.23
2023-05-30T07:27:53.468Z,4.47
2023-05-30T07:30:55.864Z,4.37
2023-05-30T07:33:58.182Z,3.90
2023-05-30T07:37:00.641Z,4.37
2023-05-30T07:40:06.571Z,3.80
2023-05-30T07:43:08.621Z,5.00
2023-05-30T07:46:10.869Z,3.60
2023-05-30T07:49:12.972Z,4.10
2023-05-30T07:52:14.896Z,4.07
2023-05-30T07:55:16.937Z,3.80
2023-05-30T07:58:18.948Z,4.20
2023-05-30T08:01:21.025Z,3.67
2023-05-30T08:04:23.718Z,4.37
2023-05-30T08:07:26.012Z,4.38
2023-05-30T08:10:28.102Z,4.40
2023-05-30T08:13:30.194Z,4.10
2023-05-30T08:16:34.084Z,4.07
2023-05-30T08:19:37.372Z,4.00
2023-05-30T08:22:39.531Z,4.20
2023-05-30T08:25:47.034Z,4.13
2023-05-30T08:28:49.040Z,3.78
2023-05-30T08:31:51.116Z,4.00
2023-05-30T08:34:53.258Z,4.05
2023-05-30T08:37:55.294Z,3.72
2023-05-30T08:40:57.622Z,4.10
2023-05-30T08:44:00.751Z,3.90
2023-05-30T08:47:03.772Z,3.90
2023-05-30T08:50:08.562Z,4.20
2023-05-30T08:53:13.955Z,3.72
2023-05-30T08:56:36.903Z,3.97
2023-05-30T08:59:38.833Z,3.55
2023-05-30T09:02:41.589Z,3.85
2023-05-30T09:05:44.584Z,3.88
2023-05-30T09:08:47.633Z,3.97
2023-05-30T09:11:50.406Z,4.10
2023-05-30T09:14:52.873Z,4.15
2023-05-30T09:17:58.890Z,4.20
2023-05-30T09:21:02.453Z,3.53
2023-05-30T09:24:06.123Z,3.95
2023-05-30T09:27:08.911Z,3.75
2023-05-30T09:30:11.870Z,4.13
2023-05-30T09:33:13.889Z,3.72
2023-05-30T09:36:20.204Z,3.38
2023-05-30T09:39:22.435Z,4.38
2023-05-30T09:42:24.367Z,3.97
2023-05-30T09:45:26.872Z,3.65
2023-05-30T09:48:29.016Z,4.85
2023-05-30T09:51:31.303Z,4.30
2023-05-30T09:54:35.109Z,4.75
2023-05-30T09:57:39.391Z,4.75
2023-05-30T10:00:53.219Z,4.60
2023-05-30T10:03:57.667Z,5.15
2023-05-30T10:07:00.153Z,5.07
2023-05-30T10:10:02.211Z,4.78
2023-05-30T10:13:04.493Z,5.07
2023-05-30T10:16:13.928Z,4.25
2023-05-30T10:19:19.417Z,5.70
2023-05-30T10:22:23.227Z,4.88
2023-05-30T10:25:28.548Z,4.15
2023-05-30T10:28:31.572Z,4.68
2023-05-30T10:31:34.900Z,4.00
2023-05-30T10:34:45.646Z,4.03
2023-05-30T10:37:48.584Z,3.47
2023-05-30T10:41:08.622Z,3.22
2023-05-30T10:44:29.086Z,2.97
2023-05-30T10:47:40.456Z,2.85
2023-05-30T10:50:47.897Z,3.20
2023-05-30T10:53:50.486Z,3.00
2023-05-30T10:56:52.873Z,3.10
2023-05-30T11:00:01.434Z,2.75
2023-05-30T11:03:03.510Z,4.20
2023-05-30T11:06:07.223Z,3.25
2023-05-30T11:09:19.432Z,3.28
2023-05-30T11:12:25.404Z,3.78
2023-05-30T11:15:38.058Z,3.15
2023-05-30T11:18:43.327Z,3.60
2023-05-30T11:22:01.278Z,3.25
2023-05-30T11:25:20.507Z,2.83
2023-05-30T11:28:35.949Z,3.03
2023-05-30T11:31:38.607Z,2.65
2023-05-30T11:34:41.076Z,2.85
2023-05-30T11:37:44.246Z,3.08
2023-05-30T11:40:46.867Z,2.75
2023-05-30T11:43:49.919Z,2.47
2023-05-30T11:47:07.986Z,2.47
2023-05-30T11:50:15.553Z,2.60
2023-05-30T11:53:18.485Z,2.65
2023-05-30T11:56:21.638Z,3.22
2023-05-30T11:59:28.185Z,2.47
2023-05-30T12:02:33.825Z,2.70
2023-05-30T12:05:36.389Z,2.63
2023-05-30T12:08:47.154Z,2.80
2023-05-30T12:11:58.090Z,2.88
2023-05-30T12:15:08.577Z,3.30
2023-05-30T12:18:10.972Z,2.58
2023-05-30T12:21:14.201Z,2.78
2023-05-30T12:24:16.450Z,3.20
2023-05-30T12:27:23.208Z,2.78
2023-05-30T12:30:26.062Z,2.22
2023-05-30T12:33:32.017Z,2.60
2023-05-30T12:36:34.515Z,2.88
2023-05-30T12:39:36.663Z,2.60
2023-05-30T12:42:38.721Z,2.47
2023-05-30T12:45:41.909Z,2.50
2023-05-30T12:48:43.899Z,2.40
2023-05-30T12:51:46.655Z,2.80
2023-05-30T12:54:49.525Z,2.60
2023-05-30T12:57:51.824Z,2.80
2023-05-30T13:00:53.902Z,2.40
2023-05-30T13:03:56.075Z,2.90
2023-05-30T13:06:59.552Z,2.78
2023-05-30T13:10:01.767Z,2.58
2023-05-30T13:13:03.808Z,2.40
2023-05-30T13:16:06.386Z,2.40
2023-05-30T13:19:11.268Z,2.50
2023-05-30T13:22:13.988Z,2.10
2023-05-30T13:25:16.044Z,3.25
2023-05-30T13:28:18.048Z,2.45
2023-05-30T13:31:20.137Z,2.45
2023-05-30T13:34:22.889Z,2.35
2023-05-30T13:37:24.873Z,2.28
2023-05-30T13:40:28.106Z,2.20
2023-05-30T13:43:30.520Z,2.20
2023-05-30T13:46:32.725Z,2.58
2023-05-30T13:49:37.075Z,2.85
2023-05-30T13:52:40.086Z,2.72
2023-05-30T13:55:42.205Z,2.30
2023-05-30T13:58:44.824Z,2.50
2023-05-30T14:01:49.573Z,2.40
2023-05-30T14:04:52.475Z,2.55
2023-05-30T14:07:54.576Z,2.38
2023-05-30T14:10:57.313Z,2.38
2023-05-30T14:13:59.782Z,2.47
2023-05-30T14:17:04.597Z,2.50
2023-05-30T14:20:08.243Z,2.85
2023-05-30T14:23:10.714Z,3.03
2023-05-30T14:26:12.713Z,2.58
2023-05-30T14:29:14.806Z,3.00
2023-05-30T14:32:16.879Z,2.78
2023-05-30T14:35:18.980Z,2.63
2023-05-30T14:38:21.428Z,4.82
2023-05-30T14:41:24.719Z,2.90
2023-05-30T14:44:26.758Z,2.58
2023-05-30T14:47:28.854Z,2.75
2023-05-30T14:50:33.420Z,2.88
2023-05-30T14:53:36.204Z,2.75
2023-05-30T14:56:38.465Z,2.45
2023-05-30T14:59:40.908Z,3.03
2023-05-30T15:02:43.033Z,2.47
2023-05-30T15:05:46.790Z,2.83
2023-05-30T15:08:48.768Z,2.80
2023-05-30T15:11:50.833Z,2.63
2023-05-30T15:14:52.767Z,2.75
2023-05-30T15:17:54.842Z,2.42
2023-05-30T15:20:57.370Z,2.35
2023-05-30T15:23:59.734Z,2.40
2023-05-30T15:27:02.153Z,2.30
2023-05-30T15:30:04.517Z,2.80
2023-05-30T15:33:07.152Z,2.63
2023-05-30T15:36:09.223Z,2.67
2023-05-30T15:39:11.504Z,2.70
2023-05-30T15:42:13.621Z,2.60
2023-05-30T15:45:15.665Z,2.42
2023-05-30T15:48:17.664Z,2.50
2023-05-30T15:51:19.694Z,2.92
2023-05-30T15:54:23.247Z,2.30
2023-05-30T15:57:25.890Z,2.45
2023-05-30T16:00:28.059Z,2.55
2023-05-30T16:03:30.029Z,2.47
2023-05-30T16:06:33.270Z,2.20
2023-05-30T16:09:39.691Z,2.50
2023-05-30T16:12:41.855Z,2.60
2023-05-30T16:15:43.927Z,2.20
2023-05-30T16:18:46.374Z,2.67
2023-05-30T16:21:48.349Z,2.67
2023-05-30T16:24:51.106Z,3.15
2023-05-30T16:27:53.124Z,2.83
2023-05-30T16:30:55.499Z,3.33
2023-05-30T16:33:57.529Z,3.17
2023-05-30T16:36:59.647Z,2.40
2023-05-30T16:40:12.391Z,3.15
2023-05-30T16:43:18.930Z,3.20
2023-05-30T16:46:20.976Z,2.83
2023-05-30T16:49:23.054Z,3.10
2023-05-30T16:52:25.241Z,3.05
2023-05-30T16:55:27.260Z,3.22
2023-05-30T16:58:29.219Z,3.30
2023-05-30T17:01:31.497Z,3.05
2023-05-30T17:04:33.877Z,2.70
2023-05-30T17:07:36.578Z,3.53
2023-05-30T17:10:39.316Z,2.95
2023-05-30T17:13:41.983Z,3.42
2023-05-30T17:16:44.007Z,3.03
2023-05-30T17:19:46.073Z,2.95
2023-05-30T17:22:48.233Z,3.17
2023-05-30T17:26:01.162Z,3.08
2023-05-30T17:29:05.189Z,3.17
2023-05-30T17:32:08.648Z,3.40
2023-05-30T17:35:11.049Z,3.47
2023-05-30T17:38:13.958Z,3.42
2023-05-30T17:41:16.944Z,3.13
2023-05-30T17:44:19.450Z,3.30
2023-05-30T17:47:21.861Z,3.13
2023-05-30T17:50:24.036Z,3.65
2023-05-30T17:53:26.017Z,2.85
2023-05-30T17:56:34.130Z,2.95
2023-05-30T17:59:36.625Z,3.95
2023-05-30T18:02:41.227Z,3.38
2023-05-30T18:05:43.300Z,3.60
2023-05-30T18:08:45.362Z,3.65
2023-05-30T18:11:47.327Z,3.25
2023-05-30T18:14:50.995Z,4.10
2023-05-30T18:17:53.908Z,3.90
2023-05-30T18:20:56.101Z,3.50
2023-05-30T18:23:59.025Z,3.10
2023-05-30T18:27:01.770Z,3.38
2023-05-30T18:30:03.967Z,3.67
2023-05-30T18:33:06.057Z,3.58
2023-05-30T18:36:13.195Z,4.30
2023-05-30T18:39:17.026Z,6.97
2023-05-30T18:42:19.387Z,4.57
2023-05-30T18:45:21.504Z,3.63
2023-05-30T18:48:35.706Z,3.47
2023-05-30T18:51:45.801Z,3.43
2023-05-30T18:54:48.796Z,3.20
2023-05-30T18:57:50.963Z,3.03
2023-05-30T19:00:52.930Z,2.87
2023-05-30T19:03:55.204Z,4.97
2023-05-30T19:06:57.292Z,3.10
2023-05-30T19:10:02.037Z,3.93
2023-05-30T19:13:07.060Z,4.37
2023-05-30T19:16:09.558Z,3.83
2023-05-30T19:19:11.632Z,3.03
2023-05-30T19:22:13.597Z,3.33
2023-05-30T19:25:15.705Z,3.77
2023-05-30T19:28:18.025Z,2.87
2023-05-30T19:31:22.108Z,3.43
2023-05-30T19:34:24.518Z,3.17
2023-05-30T19:37:26.928Z,2.90
2023-05-30T19:40:29.146Z,2.87
2023-05-30T19:43:31.514Z,3.13
2023-05-30T19:46:33.636Z,3.53
2023-05-30T19:49:36.394Z,3.03
2023-05-30T19:52:38.873Z,3.53
2023-05-30T19:55:40.861Z,3.80
2023-05-30T19:58:42.968Z,3.37
2023-05-30T20:01:45.041Z,3.57
2023-05-30T20:04:47.098Z,3.33
2023-05-30T20:07:49.025Z,3.00
2023-05-30T20:10:51.204Z,3.47
2023-05-30T20:13:53.194Z,3.20
2023-05-30T20:16:55.293Z,3.27
2023-05-30T20:19:57.319Z,3.33
2023-05-30T20:22:59.799Z,3.73
2023-05-30T20:26:02.343Z,3.40
2023-05-30T20:29:04.878Z,3.73
2023-05-30T20:32:07.666Z,3.17
2023-05-30T20:35:10.715Z,3.20
2023-05-30T20:38:12.771Z,3.40
2023-05-30T20:41:18.684Z,3.53
2023-05-30T20:44:20.772Z,3.00
2023-05-30T20:47:22.989Z,3.40
2023-05-30T20:50:25.072Z,3.20
2023-05-30T20:53:27.500Z,3.27
2023-05-30T20:56:30.813Z,3.43
2023-05-30T20:59:33.678Z,3.53
2023-05-30T21:02:35.694Z,3.63
2023-05-30T21:05:37.821Z,3.67
2023-05-30T21:08:39.831Z,3.10
2023-05-30T21:11:42.523Z,3.33
2023-05-30T21:14:44.494Z,3.23
2023-05-30T21:17:46.665Z,3.60
2023-05-30T21:20:48.938Z,3.53
2023-05-30T21:23:51.783Z,3.50
2023-05-30T21:26:53.885Z,3.40
2023-05-30T21:29:55.963Z,3.60
2023-05-30T21:32:58.489Z,3.43
2023-05-30T21:36:00.979Z,3.60
2023-05-30T21:39:02.973Z,3.47
2023-05-30T21:42:05.833Z,4.00
2023-05-30T21:45:08.301Z,3.40
2023-05-30T21:48:10.901Z,3.60
2023-05-30T21:51:13.080Z,3.60
2023-05-30T21:54:34.557Z,3.43
2023-05-30T21:57:36.722Z,3.70
2023-05-30T22:00:42.850Z,3.27
2023-05-30T22:03:46.702Z,3.70
2023-05-30T22:06:48.926Z,3.57
2023-05-30T22:09:50.938Z,3.43
2023-05-30T22:12:52.922Z,3.60
2023-05-30T22:15:55.031Z,3.27
2023-05-30T22:18:57.123Z,3.20
2023-05-30T22:22:03.563Z,3.63
2023-05-30T22:25:06.841Z,3.47
2023-05-30T22:28:08.861Z,2.90
2023-05-30T22:31:11.049Z,2.90
2023-05-30T22:34:13.122Z,3.17
2023-05-30T22:37:15.234Z,3.50
2023-05-30T22:40:17.388Z,4.13
2023-05-30T22:43:19.412Z,3.60
2023-05-30T22:46:21.451Z,3.30
2023-05-30T22:49:23.582Z,3.83
2023-05-30T22:52:25.559Z,3.70
2023-05-30T22:55:27.600Z,3.53
2023-05-30T22:58:29.624Z,3.00
2023-05-30T23:01:31.735Z,3.47
2023-05-30T23:04:33.879Z,3.20
2023-05-30T23:07:35.859Z,3.60
2023-05-30T23:10:38.133Z,3.23
2023-05-30T23:13:40.139Z,3.80
2023-05-30T23:16:42.446Z,3.70
2023-05-30T23:19:44.529Z,2.83
2023-05-30T23:22:46.782Z,4.10
2023-05-30T23:25:48.772Z,3.33
2023-05-30T23:28:50.717Z,3.50
2023-05-30T23:31:52.978Z,3.73
2023-05-30T23:34:55.042Z,3.53
2023-05-30T23:37:58.118Z,3.20
2023-05-30T23:41:00.413Z,2.83
2023-05-30T23:44:02.613Z,3.60
2023-05-30T23:47:04.838Z,3.13
2023-05-30T23:50:07.291Z,3.93
2023-05-30T23:53:09.202Z,4.23
2023-05-30T23:56:12.532Z,3.37
2023-05-30T23:59:14.482Z,3.47
